createdAt,value
2023-03-03T00:00:13.120Z,86.49
2023-03-03T00:02:14.630Z,86.08
2023-03-03T00:04:16.096Z,86.68
2023-03-03T00:06:17.913Z,86.80
2023-03-03T00:08:20.078Z,86.61
2023-03-03T00:10:21.556Z,86.52
2023-03-03T00:12:28.886Z,86.33
2023-03-03T00:14:32.907Z,86.49
2023-03-03T00:16:39.072Z,86.31
2023-03-03T00:18:43.917Z,86.26
2023-03-03T00:20:50.259Z,86.64
2023-03-03T00:22:51.924Z,86.85
2023-03-03T00:24:54.019Z,86.68
2023-03-03T00:27:00.749Z,86.87
2023-03-03T00:29:02.942Z,86.74
2023-03-03T00:31:16.617Z,86.95
2023-03-03T00:33:32.419Z,87.11
2023-03-03T00:35:35.759Z,86.74
2023-03-03T00:37:41.218Z,86.99
2023-03-03T00:39:42.669Z,86.93
2023-03-03T00:41:44.370Z,87.10
2023-03-03T00:43:45.824Z,87.11
2023-03-03T00:45:55.824Z,86.86
2023-03-03T00:47:58.423Z,87.14
2023-03-03T00:50:05.874Z,87.07
2023-03-03T00:52:18.526Z,87.21
2023-03-03T00:54:20.078Z,87.12
2023-03-03T00:56:21.635Z,86.87
2023-03-03T00:58:25.125Z,86.93
2023-03-03T01:00:26.619Z,86.91
2023-03-03T01:02:28.223Z,86.89
2023-03-03T01:04:29.754Z,87.09
2023-03-03T01:06:31.184Z,86.55
2023-03-03T01:08:32.980Z,86.73
2023-03-03T01:10:39.169Z,86.43
2023-03-03T01:12:40.879Z,87.16
2023-03-03T01:14:42.461Z,87.43
2023-03-03T01:16:44.040Z,87.21
2023-03-03T01:18:46.006Z,87.17
2023-03-03T01:20:47.596Z,87.18
2023-03-03T01:22:49.108Z,86.89
2023-03-03T01:24:50.559Z,87.24
2023-03-03T01:26:52.016Z,86.85
2023-03-03T01:28:53.468Z,87.18
2023-03-03T01:30:55.120Z,86.91
2023-03-03T01:32:56.993Z,86.86
2023-03-03T01:34:58.483Z,87.24
2023-03-03T01:37:01.072Z,87.13
2023-03-03T01:39:02.633Z,87.02
2023-03-03T01:41:04.332Z,87.10
2023-03-03T01:43:06.044Z,87.50
2023-03-03T01:45:15.585Z,87.49
2023-03-03T01:47:24.865Z,87.43
2023-03-03T01:49:35.442Z,87.52
2023-03-03T01:51:52.610Z,87.78
2023-03-03T01:54:01.201Z,88.01
2023-03-03T01:56:05.830Z,88.23
2023-03-03T01:58:39.038Z,88.98
2023-03-03T02:00:44.541Z,89.98
2023-03-03T02:02:46.793Z,90.51
2023-03-03T02:04:49.918Z,90.36
2023-03-03T02:06:56.674Z,91.14
2023-03-03T02:09:03.859Z,92.19
2023-03-03T02:11:06.554Z,92.89
2023-03-03T02:13:08.213Z,93.37
2023-03-03T02:15:17.112Z,93.76
2023-03-03T02:17:18.692Z,93.45
2023-03-03T02:19:47.433Z,93.39
2023-03-03T02:21:48.994Z,93.68
2023-03-03T02:24:07.598Z,93.48
2023-03-03T02:26:22.784Z,93.96
2023-03-03T02:28:27.616Z,94.20
2023-03-03T02:30:29.194Z,94.09
2023-03-03T02:32:30.685Z,93.91
2023-03-03T02:34:46.908Z,93.79
2023-03-03T02:36:48.418Z,94.13
2023-03-03T02:38:59.194Z,94.22
2023-03-03T02:41:23.231Z,94.60
2023-03-03T02:43:32.503Z,94.85
2023-03-03T02:45:34.115Z,95.14
2023-03-03T02:47:35.615Z,95.76
2023-03-03T02:49:37.616Z,95.96
2023-03-03T02:51:40.211Z,96.92
2023-03-03T02:53:41.721Z,96.70
2023-03-03T02:55:43.186Z,97.37
2023-03-03T02:57:44.703Z,97.49
2023-03-03T02:59:49.621Z,97.93
2023-03-03T03:01:51.882Z,97.83
2023-03-03T03:03:53.379Z,97.56
2023-03-03T03:05:54.821Z,97.58
2023-03-03T03:07:56.288Z,97.67
2023-03-03T03:09:57.796Z,97.48
2023-03-03T03:12:02.415Z,97.35
2023-03-03T03:14:06.441Z,97.29
2023-03-03T03:16:08.275Z,97.66
2023-03-03T03:18:09.717Z,97.24
2023-03-03T03:20:11.813Z,97.57
2023-03-03T03:22:13.268Z,98.07
2023-03-03T03:24:14.755Z,98.16
2023-03-03T03:26:16.229Z,98.53
2023-03-03T03:28:18.881Z,98.21
2023-03-03T03:30:23.155Z,98.63
2023-03-03T03:32:24.738Z,98.84
2023-03-03T03:34:26.330Z,98.65
2023-03-03T03:36:28.288Z,98.57
2023-03-03T03:38:32.400Z,98.94
2023-03-03T03:40:33.887Z,99.26
2023-03-03T03:42:35.415Z,98.49
2023-03-03T03:44:37.150Z,98.06
2023-03-03T03:46:38.638Z,97.93
2023-03-03T03:48:40.168Z,98.20
2023-03-03T03:50:41.640Z,97.79
2023-03-03T03:52:43.789Z,97.85
2023-03-03T03:54:45.331Z,98.48
2023-03-03T03:56:46.845Z,98.67
2023-03-03T03:58:48.305Z,98.84
2023-03-03T04:00:49.900Z,99.00
2023-03-03T04:02:52.313Z,99.00
2023-03-03T04:04:53.978Z,98.43
2023-03-03T04:06:55.462Z,96.94
2023-03-03T04:08:57.328Z,96.68
2023-03-03T04:10:59.090Z,96.35
2023-03-03T04:13:00.752Z,96.57
2023-03-03T04:15:02.224Z,96.91
2023-03-03T04:17:03.690Z,96.80
2023-03-03T04:19:05.206Z,96.63
2023-03-03T04:21:06.684Z,96.60
2023-03-03T04:23:08.129Z,97.00
2023-03-03T04:25:14.686Z,97.28
2023-03-03T04:27:16.246Z,97.83
2023-03-03T04:29:17.674Z,97.91
2023-03-03T04:31:20.543Z,97.56
2023-03-03T04:33:22.081Z,98.11
2023-03-03T04:35:24.902Z,98.59
2023-03-03T04:37:26.575Z,98.25
2023-03-03T04:39:28.753Z,98.45
2023-03-03T04:41:30.261Z,99.30
2023-03-03T04:43:31.715Z,99.50
2023-03-03T04:45:33.299Z,99.54
2023-03-03T04:47:34.960Z,99.40
2023-03-03T04:49:37.037Z,99.08
2023-03-03T04:51:38.578Z,99.56
2023-03-03T04:53:40.082Z,99.91
2023-03-03T04:55:42.024Z,100.00
2023-03-03T04:57:43.576Z,100.00
2023-03-03T04:59:45.096Z,100.00
2023-03-03T05:01:46.702Z,100.00
2023-03-03T05:03:48.289Z,100.00
2023-03-03T05:05:50.291Z,100.00
2023-03-03T05:07:51.757Z,100.00
2023-03-03T05:09:53.223Z,100.00
2023-03-03T05:11:54.908Z,100.00
2023-03-03T05:13:56.354Z,100.00
2023-03-03T05:15:57.925Z,100.00
2023-03-03T05:17:59.623Z,100.00
2023-03-03T05:20:01.165Z,100.00
2023-03-03T05:22:02.661Z,100.00
2023-03-03T05:24:04.320Z,100.00
2023-03-03T05:26:06.094Z,100.00
2023-03-03T05:28:07.797Z,100.00
2023-03-03T05:30:11.611Z,100.00
2023-03-03T05:32:13.086Z,100.00
2023-03-03T05:34:14.573Z,100.00
2023-03-03T05:36:16.053Z,100.00
2023-03-03T05:38:17.715Z,100.00
2023-03-03T05:40:19.813Z,100.00
2023-03-03T05:42:21.940Z,100.00
2023-03-03T05:44:23.485Z,100.00
2023-03-03T05:46:24.973Z,100.00
2023-03-03T05:48:27.460Z,100.00
2023-03-03T05:50:28.940Z,100.00
2023-03-03T05:52:30.463Z,100.00
2023-03-03T05:54:32.074Z,100.00
2023-03-03T05:56:33.592Z,100.00
2023-03-03T05:58:35.068Z,100.00
2023-03-03T06:00:36.548Z,100.00
2023-03-03T06:02:38.057Z,100.00
2023-03-03T06:04:39.959Z,100.00
2023-03-03T06:06:41.630Z,100.00
2023-03-03T06:08:43.196Z,100.00
2023-03-03T06:10:44.694Z,100.00
2023-03-03T06:12:46.272Z,100.00
2023-03-03T06:14:47.768Z,100.00
2023-03-03T06:16:49.275Z,100.00
2023-03-03T06:18:50.786Z,100.00
2023-03-03T06:20:53.546Z,100.00
2023-03-03T06:22:55.094Z,100.00
2023-03-03T06:24:56.564Z,100.00
2023-03-03T06:26:58.949Z,100.00
2023-03-03T06:29:01.483Z,100.00
2023-03-03T06:31:02.994Z,100.00
2023-03-03T06:33:04.555Z,100.00
2023-03-03T06:35:06.519Z,100.00
2023-03-03T06:37:08.011Z,100.00
2023-03-03T06:39:09.455Z,100.00
2023-03-03T06:41:11.413Z,100.00
2023-03-03T06:43:13.450Z,100.00
2023-03-03T06:45:15.287Z,100.00
2023-03-03T06:47:17.145Z,100.00
2023-03-03T06:49:18.981Z,100.00
2023-03-03T06:51:30.803Z,100.00
2023-03-03T06:53:33.204Z,100.00
2023-03-03T06:55:34.674Z,100.00
2023-03-03T06:57:37.165Z,100.00
2023-03-03T06:59:38.899Z,100.00
2023-03-03T07:01:41.859Z,100.00
2023-03-03T07:03:43.802Z,100.00
2023-03-03T07:05:45.379Z,100.00
2023-03-03T07:07:46.980Z,100.00
2023-03-03T07:09:51.112Z,100.00
2023-03-03T07:11:56.778Z,100.00
2023-03-03T07:13:58.845Z,100.00
2023-03-03T07:16:06.418Z,100.00
2023-03-03T07:18:25.791Z,100.00
2023-03-03T07:20:38.313Z,100.00
2023-03-03T07:22:39.795Z,100.00
2023-03-03T07:24:43.134Z,100.00
2023-03-03T07:26:44.604Z,100.00
2023-03-03T07:29:30.488Z,100.00
2023-03-03T07:31:39.642Z,100.00
2023-03-03T07:33:46.887Z,100.00
2023-03-03T07:35:48.428Z,100.00
2023-03-03T07:37:49.948Z,100.00
2023-03-03T07:39:51.733Z,100.00
2023-03-03T07:42:00.733Z,100.00
2023-03-03T07:44:13.425Z,100.00
2023-03-03T07:46:42.893Z,96.96
2023-03-03T07:48:44.721Z,94.72
2023-03-03T07:50:46.369Z,93.27
2023-03-03T07:53:00.737Z,92.51
2023-03-03T07:55:19.884Z,92.60
2023-03-03T07:57:36.773Z,92.05
2023-03-03T07:59:50.460Z,92.57
2023-03-03T08:01:58.735Z,93.15
2023-03-03T08:04:00.502Z,93.33
2023-03-03T08:06:24.121Z,93.98
2023-03-03T08:08:37.007Z,94.50
2023-03-03T08:10:48.219Z,94.91
2023-03-03T08:12:49.756Z,95.10
2023-03-03T08:14:52.458Z,95.68
2023-03-03T08:16:53.991Z,95.88
2023-03-03T08:19:01.909Z,96.25
2023-03-03T08:21:14.685Z,96.47
2023-03-03T08:23:18.056Z,96.14
2023-03-03T08:25:19.576Z,96.41
2023-03-03T08:27:21.076Z,96.22
2023-03-03T08:29:22.580Z,96.01
2023-03-03T08:31:39.717Z,95.55
2023-03-03T08:33:42.463Z,95.13
2023-03-03T08:35:44.731Z,95.33
2023-03-03T08:37:46.238Z,95.26
2023-03-03T08:39:47.719Z,95.00
2023-03-03T08:41:49.174Z,94.87
2023-03-03T08:43:50.664Z,94.77
2023-03-03T08:45:54.187Z,94.14
2023-03-03T08:47:56.577Z,93.73
2023-03-03T08:49:58.149Z,93.42
2023-03-03T08:52:00.753Z,93.59
2023-03-03T08:54:02.274Z,92.70
2023-03-03T08:56:05.207Z,92.94
2023-03-03T08:58:06.697Z,93.18
2023-03-03T09:00:11.968Z,92.95
2023-03-03T09:02:13.650Z,93.22
2023-03-03T09:04:15.182Z,92.98
2023-03-03T09:06:16.665Z,92.81
2023-03-03T09:08:18.176Z,92.90
2023-03-03T09:10:29.334Z,93.13
2023-03-03T09:12:35.259Z,93.58
2023-03-03T09:14:36.730Z,93.54
2023-03-03T09:16:41.769Z,93.40
2023-03-03T09:18:44.181Z,91.85
2023-03-03T09:20:48.335Z,91.54
2023-03-03T09:22:50.859Z,90.94
2023-03-03T09:24:57.181Z,90.73
2023-03-03T09:26:59.749Z,89.32
2023-03-03T09:29:11.382Z,88.51
2023-03-03T09:31:30.170Z,87.78
2023-03-03T09:33:42.410Z,88.14
2023-03-03T09:35:45.544Z,87.06
2023-03-03T09:37:52.158Z,86.92
2023-03-03T09:39:56.246Z,86.98
2023-03-03T09:42:19.247Z,87.10
2023-03-03T09:44:29.903Z,86.16
2023-03-03T09:46:49.569Z,85.89
2023-03-03T09:48:51.052Z,85.09
2023-03-03T09:51:18.394Z,84.32
2023-03-03T09:53:59.829Z,83.94
2023-03-03T09:56:16.716Z,82.94
2023-03-03T09:58:36.541Z,83.28
2023-03-03T10:01:10.544Z,82.47
2023-03-03T10:03:33.351Z,82.05
2023-03-03T10:05:42.886Z,81.57
2023-03-03T10:08:26.526Z,80.23
2023-03-03T10:10:46.027Z,81.02
2023-03-03T10:13:01.759Z,80.97
2023-03-03T10:15:12.237Z,80.76
2023-03-03T10:17:23.315Z,80.80
2023-03-03T10:19:48.106Z,79.62
2023-03-03T10:22:28.429Z,79.26
2023-03-03T10:24:35.526Z,79.42
2023-03-03T10:27:12.116Z,78.44
2023-03-03T10:29:23.176Z,78.13
2023-03-03T10:31:45.336Z,77.17
2023-03-03T10:34:00.501Z,76.64
2023-03-03T10:36:08.226Z,77.25
2023-03-03T10:38:32.154Z,76.86
2023-03-03T10:40:42.868Z,77.43
2023-03-03T10:42:51.174Z,77.33
2023-03-03T10:45:26.214Z,77.33
2023-03-03T10:47:37.244Z,77.17
2023-03-03T10:50:08.092Z,76.74
2023-03-03T10:52:34.264Z,77.52
2023-03-03T10:55:08.027Z,77.93
2023-03-03T10:57:38.350Z,78.41
2023-03-03T11:00:16.816Z,78.39
2023-03-03T11:02:25.398Z,76.84
2023-03-03T11:05:00.028Z,77.80
2023-03-03T11:07:11.857Z,78.08
2023-03-03T11:09:51.143Z,77.69
2023-03-03T11:12:04.128Z,76.55
2023-03-03T11:14:18.251Z,74.86
2023-03-03T11:16:31.837Z,75.30
2023-03-03T11:18:48.041Z,76.32
2023-03-03T11:21:02.089Z,76.36
2023-03-03T11:23:22.306Z,74.95
2023-03-03T11:25:55.542Z,74.22
2023-03-03T11:28:15.384Z,74.48
2023-03-03T11:30:17.783Z,75.43
2023-03-03T11:32:40.239Z,75.21
2023-03-03T11:35:19.392Z,74.71
2023-03-03T11:37:54.948Z,72.54
2023-03-03T11:40:01.517Z,72.66
2023-03-03T11:42:11.870Z,73.44
2023-03-03T11:44:27.380Z,71.22
2023-03-03T11:46:45.452Z,68.69
2023-03-03T11:49:08.298Z,67.76
2023-03-03T11:51:28.892Z,69.31
2023-03-03T11:53:39.860Z,68.88
2023-03-03T11:55:49.354Z,70.30
2023-03-03T11:58:00.988Z,67.47
2023-03-03T12:00:09.466Z,64.07
2023-03-03T12:02:29.182Z,61.78
2023-03-03T12:04:34.566Z,61.59
2023-03-03T12:07:22.053Z,63.77
2023-03-03T12:09:42.103Z,65.09
2023-03-03T12:12:09.944Z,64.35
2023-03-03T12:14:22.761Z,67.19
2023-03-03T12:17:13.547Z,67.04
2023-03-03T12:19:30.082Z,67.60
2023-03-03T12:21:46.383Z,67.61
2023-03-03T12:24:09.464Z,68.74
2023-03-03T12:26:25.830Z,68.76
2023-03-03T12:28:40.932Z,69.57
2023-03-03T12:31:10.616Z,69.82
2023-03-03T12:33:30.952Z,69.97
2023-03-03T12:36:03.000Z,69.54
2023-03-03T12:38:27.453Z,70.68
2023-03-03T12:40:33.914Z,71.27
2023-03-03T12:42:47.428Z,70.54
2023-03-03T12:44:51.847Z,70.42
2023-03-03T12:47:13.468Z,71.52
2023-03-03T12:49:15.033Z,71.22
2023-03-03T12:51:33.682Z,72.19
2023-03-03T12:53:40.428Z,68.93
2023-03-03T12:56:01.224Z,67.91
2023-03-03T12:58:23.943Z,68.38
2023-03-03T13:00:28.474Z,68.73
2023-03-03T13:02:40.950Z,68.49
2023-03-03T13:05:20.880Z,68.47
2023-03-03T13:07:49.859Z,68.22
2023-03-03T13:09:57.435Z,69.47
2023-03-03T13:12:01.862Z,69.02
2023-03-03T13:14:36.643Z,70.04
2023-03-03T13:16:46.593Z,69.81
2023-03-03T13:18:50.983Z,72.32
2023-03-03T13:21:05.383Z,71.06
2023-03-03T13:23:25.629Z,70.49
2023-03-03T13:25:40.111Z,70.05
2023-03-03T13:27:45.579Z,69.79
2023-03-03T13:30:22.842Z,69.71
2023-03-03T13:32:37.428Z,69.78
2023-03-03T13:35:17.813Z,68.35
2023-03-03T13:37:24.255Z,66.68
2023-03-03T13:39:30.782Z,67.87
2023-03-03T13:41:46.971Z,66.70
2023-03-03T13:43:52.297Z,66.83
2023-03-03T13:45:59.774Z,67.66
2023-03-03T13:48:38.983Z,67.43
2023-03-03T13:50:50.913Z,67.34
2023-03-03T13:53:24.236Z,68.19
2023-03-03T13:55:40.819Z,69.31
2023-03-03T13:58:01.178Z,68.57
2023-03-03T14:00:24.126Z,69.33
2023-03-03T14:02:54.017Z,68.20
2023-03-03T14:05:04.585Z,69.83
2023-03-03T14:07:17.957Z,68.79
2023-03-03T14:09:46.510Z,68.23
2023-03-03T14:11:59.977Z,68.71
2023-03-03T14:14:18.277Z,68.14
2023-03-03T14:16:34.236Z,68.32
2023-03-03T14:18:39.807Z,67.82
2023-03-03T14:20:49.168Z,68.44
2023-03-03T14:23:01.049Z,68.29
2023-03-03T14:25:12.344Z,67.80
2023-03-03T14:27:24.818Z,68.41
2023-03-03T14:29:26.237Z,68.38
2023-03-03T14:31:38.295Z,68.88
2023-03-03T14:33:43.914Z,69.80
2023-03-03T14:36:09.615Z,71.44
2023-03-03T14:38:21.638Z,71.02
2023-03-03T14:40:34.254Z,72.48
2023-03-03T14:42:44.974Z,70.73
2023-03-03T14:44:46.337Z,71.30
2023-03-03T14:47:03.034Z,70.89
2023-03-03T14:49:13.337Z,72.67
2023-03-03T14:51:28.923Z,71.05
2023-03-03T14:53:35.656Z,69.68
2023-03-03T14:55:40.229Z,69.42
2023-03-03T14:57:46.975Z,68.94
2023-03-03T15:02:15.681Z,69.84
2023-03-03T15:04:17.098Z,70.55
2023-03-03T15:06:44.885Z,69.90
2023-03-03T15:08:47.981Z,68.91
2023-03-03T15:10:49.462Z,69.56
2023-03-03T15:12:52.296Z,69.88
2023-03-03T15:15:11.293Z,69.10
2023-03-03T15:17:23.818Z,69.30
2023-03-03T15:19:41.990Z,69.82
2023-03-03T15:21:58.786Z,70.24
2023-03-03T15:24:05.968Z,70.43
2023-03-03T15:26:28.796Z,70.50
2023-03-03T15:28:39.594Z,70.67
2023-03-03T15:30:51.151Z,70.29
2023-03-03T15:33:03.812Z,69.74
2023-03-03T15:35:17.521Z,70.64
2023-03-03T15:37:43.653Z,70.23
2023-03-03T15:40:09.301Z,70.34
2023-03-03T15:42:26.989Z,71.86
2023-03-03T15:44:49.974Z,70.58
2023-03-03T15:46:57.346Z,71.32
2023-03-03T15:49:17.205Z,71.61
2023-03-03T15:52:02.804Z,71.62
2023-03-03T15:54:31.018Z,73.49
2023-03-03T15:56:58.455Z,73.57
2023-03-03T15:59:21.580Z,71.45
2023-03-03T16:01:33.901Z,71.66
2023-03-03T16:03:45.668Z,74.04
2023-03-03T16:05:57.668Z,73.04
2023-03-03T16:08:13.918Z,72.40
2023-03-03T16:10:28.810Z,74.88
2023-03-03T16:12:55.126Z,73.35
2023-03-03T16:15:09.097Z,72.27
2023-03-03T16:17:27.700Z,71.23
2023-03-03T16:19:47.476Z,71.97
2023-03-03T16:22:15.591Z,71.74
2023-03-03T16:24:26.080Z,72.26
2023-03-03T16:26:31.537Z,71.50
2023-03-03T16:28:50.592Z,71.81
2023-03-03T16:30:54.753Z,73.92
2023-03-03T16:33:15.508Z,72.80
2023-03-03T16:35:39.672Z,71.82
2023-03-03T16:37:59.675Z,70.41
2023-03-03T16:40:29.008Z,70.15
2023-03-03T16:42:33.230Z,70.08
2023-03-03T16:44:47.386Z,71.07
2023-03-03T16:46:50.026Z,71.75
2023-03-03T16:48:56.629Z,70.30
2023-03-03T16:51:13.024Z,70.34
2023-03-03T16:53:33.144Z,71.08
2023-03-03T16:55:43.830Z,71.64
2023-03-03T16:57:54.015Z,71.07
2023-03-03T17:00:19.454Z,71.05
2023-03-03T17:03:12.081Z,71.03
2023-03-03T17:05:33.401Z,72.10
2023-03-03T17:07:56.965Z,71.40
2023-03-03T17:10:04.591Z,72.14
2023-03-03T17:12:27.837Z,72.60
2023-03-03T17:14:55.569Z,71.69
2023-03-03T17:17:04.015Z,72.61
2023-03-03T17:19:25.716Z,72.59
2023-03-03T17:21:45.796Z,72.10
2023-03-03T17:23:53.213Z,72.77
2023-03-03T17:26:04.394Z,72.61
2023-03-03T17:28:30.640Z,71.57
2023-03-03T17:31:10.045Z,72.19
2023-03-03T17:33:36.739Z,72.85
2023-03-03T17:35:47.132Z,73.24
2023-03-03T17:37:58.098Z,74.13
2023-03-03T17:40:20.050Z,74.73
2023-03-03T17:42:31.309Z,73.57
2023-03-03T17:45:03.372Z,73.88
2023-03-03T17:47:10.132Z,72.74
2023-03-03T17:49:45.788Z,72.59
2023-03-03T17:52:07.433Z,72.82
2023-03-03T17:54:26.406Z,73.79
2023-03-03T17:56:52.676Z,73.91
2023-03-03T17:59:22.136Z,73.85
2023-03-03T18:01:47.609Z,74.28
2023-03-03T18:04:36.104Z,74.77
2023-03-03T18:07:15.162Z,75.03
2023-03-03T18:09:37.305Z,74.81
2023-03-03T18:11:59.924Z,74.48
2023-03-03T18:14:49.873Z,75.89
2023-03-03T18:16:51.284Z,74.50
2023-03-03T18:19:31.509Z,75.02
2023-03-03T18:22:02.999Z,74.73
2023-03-03T18:24:28.010Z,75.30
2023-03-03T18:26:40.638Z,75.73
2023-03-03T18:28:49.398Z,75.62
2023-03-03T18:30:58.063Z,74.90
2023-03-03T18:33:03.330Z,74.90
2023-03-03T18:35:24.970Z,75.54
2023-03-03T18:37:29.746Z,75.36
2023-03-03T18:39:46.275Z,74.58
2023-03-03T18:42:16.967Z,75.30
2023-03-03T18:44:29.115Z,75.00
2023-03-03T18:46:36.708Z,75.39
2023-03-03T18:48:57.546Z,74.68
2023-03-03T18:50:59.014Z,75.23
2023-03-03T18:53:18.731Z,75.05
2023-03-03T18:55:26.048Z,76.04
2023-03-03T18:57:27.809Z,76.08
2023-03-03T18:59:35.247Z,75.30
2023-03-03T19:01:41.847Z,75.91
2023-03-03T19:03:47.058Z,75.97
2023-03-03T19:05:54.016Z,76.30
2023-03-03T19:08:02.958Z,76.79
2023-03-03T19:10:28.047Z,76.09
2023-03-03T19:12:56.850Z,76.51
2023-03-03T19:14:58.640Z,76.72
2023-03-03T19:17:22.777Z,76.65
2023-03-03T19:19:54.000Z,77.09
2023-03-03T19:22:26.174Z,77.70
2023-03-03T19:24:31.350Z,77.48
2023-03-03T19:27:05.852Z,77.60
2023-03-03T19:29:13.348Z,77.82
2023-03-03T19:31:38.380Z,77.96
2023-03-03T19:33:42.815Z,77.89
2023-03-03T19:35:51.381Z,78.10
2023-03-03T19:38:11.674Z,77.49
2023-03-03T19:40:19.298Z,77.74
2023-03-03T19:42:50.240Z,77.05
2023-03-03T19:45:19.866Z,77.25
2023-03-03T19:47:33.235Z,77.01
2023-03-03T19:49:44.067Z,78.04
2023-03-03T19:52:31.448Z,77.78
2023-03-03T19:55:00.634Z,77.83
2023-03-03T19:57:04.697Z,78.36
2023-03-03T19:59:44.949Z,77.36
2023-03-03T20:02:13.724Z,77.58
2023-03-03T20:04:40.133Z,77.86
2023-03-03T20:07:09.586Z,77.69
2023-03-03T20:09:50.225Z,77.83
2023-03-03T20:12:47.579Z,78.63
2023-03-03T20:14:55.234Z,78.62
2023-03-03T20:17:11.700Z,79.77
2023-03-03T20:19:45.631Z,80.63
2023-03-03T20:22:08.939Z,79.91
2023-03-03T20:24:26.134Z,79.31
2023-03-03T20:26:52.356Z,79.31
2023-03-03T20:29:02.927Z,79.73
2023-03-03T20:31:20.182Z,79.54
2023-03-03T20:33:44.177Z,80.29
2023-03-03T20:36:06.910Z,79.94
2023-03-03T20:38:20.968Z,79.83
2023-03-03T20:40:47.479Z,79.20
2023-03-03T20:43:06.416Z,79.46
2023-03-03T20:45:29.770Z,79.98
2023-03-03T20:47:46.454Z,79.54
2023-03-03T20:50:25.591Z,79.37
2023-03-03T20:53:02.360Z,79.38
2023-03-03T20:55:32.012Z,79.69
2023-03-03T20:57:48.731Z,79.25
2023-03-03T21:00:01.702Z,80.09
2023-03-03T21:02:05.825Z,80.59
2023-03-03T21:04:27.798Z,79.93
2023-03-03T21:06:38.900Z,79.63
2023-03-03T21:08:40.344Z,80.18
2023-03-03T21:10:42.673Z,80.10
2023-03-03T21:12:44.307Z,80.29
2023-03-03T21:14:59.524Z,80.07
2023-03-03T21:17:11.276Z,80.15
2023-03-03T21:19:23.192Z,80.13
2023-03-03T21:21:26.457Z,80.65
2023-03-03T21:23:27.963Z,80.83
2023-03-03T21:25:41.742Z,80.28
2023-03-03T21:27:43.196Z,81.00
2023-03-03T21:29:44.657Z,80.27
2023-03-03T21:31:53.387Z,80.70
2023-03-03T21:33:56.200Z,80.96
2023-03-03T21:35:58.605Z,81.26
2023-03-03T21:38:00.095Z,80.79
2023-03-03T21:40:26.257Z,81.38
2023-03-03T21:42:42.385Z,81.85
2023-03-03T21:44:52.217Z,81.37
2023-03-03T21:46:53.699Z,81.52
2023-03-03T21:48:55.132Z,81.60
2023-03-03T21:50:56.780Z,81.17
2023-03-03T21:52:58.237Z,81.74
2023-03-03T21:54:59.742Z,81.47
2023-03-03T21:57:01.224Z,81.64
2023-03-03T21:59:02.667Z,81.42
2023-03-03T22:01:05.964Z,81.52
2023-03-03T22:03:07.444Z,81.57
2023-03-03T22:05:08.994Z,81.69
2023-03-03T22:07:10.843Z,81.58
2023-03-03T22:09:12.420Z,81.75
2023-03-03T22:11:15.554Z,81.75
2023-03-03T22:13:20.096Z,81.53
2023-03-03T22:15:21.777Z,82.02
2023-03-03T22:17:25.471Z,82.11
2023-03-03T22:19:27.044Z,82.06
2023-03-03T22:21:28.878Z,82.24
2023-03-03T22:23:30.336Z,81.97
2023-03-03T22:25:32.087Z,82.85
2023-03-03T22:27:33.691Z,82.43
2023-03-03T22:29:35.161Z,82.04
2023-03-03T22:31:37.340Z,82.31
2023-03-03T22:33:39.109Z,82.46
2023-03-03T22:35:40.706Z,82.55
2023-03-03T22:37:42.209Z,82.35
2023-03-03T22:39:43.699Z,82.45
2023-03-03T22:41:45.184Z,81.87
2023-03-03T22:43:47.922Z,82.58
2023-03-03T22:45:50.528Z,82.26
2023-03-03T22:47:52.119Z,81.70
2023-03-03T22:49:53.806Z,82.60
2023-03-03T22:51:58.666Z,82.49
2023-03-03T22:54:00.189Z,81.83
2023-03-03T22:56:01.763Z,82.50
2023-03-03T22:58:09.345Z,82.79
2023-03-03T23:00:11.874Z,82.21
2023-03-03T23:02:13.374Z,82.20
2023-03-03T23:04:14.912Z,82.15
2023-03-03T23:06:16.497Z,82.35
2023-03-03T23:08:19.289Z,82.34
2023-03-03T23:10:20.843Z,83.33
2023-03-03T23:12:23.443Z,82.84
2023-03-03T23:14:25.520Z,83.05
2023-03-03T23:16:27.135Z,82.95
2023-03-03T23:18:29.515Z,83.08
2023-03-03T23:20:31.680Z,83.12
2023-03-03T23:22:33.173Z,82.85
2023-03-03T23:24:34.680Z,83.40
2023-03-03T23:26:36.144Z,83.14
2023-03-03T23:28:37.637Z,83.70
2023-03-03T23:30:39.083Z,82.87
2023-03-03T23:32:41.287Z,83.56
2023-03-03T23:34:42.754Z,83.04
2023-03-03T23:36:44.210Z,82.96
2023-03-03T23:38:45.742Z,83.05
2023-03-03T23:40:47.197Z,83.39
2023-03-03T23:42:48.656Z,83.73
2023-03-03T23:44:50.556Z,83.93
2023-03-03T23:46:52.153Z,84.09
2023-03-03T23:48:53.698Z,83.48
2023-03-03T23:50:55.140Z,83.60
2023-03-03T23:52:56.676Z,83.90
2023-03-03T23:54:58.140Z,83.97
2023-03-03T23:56:59.735Z,83.86
2023-03-03T23:59:01.302Z,83.25
